createdAt,value
2018-07-20T00:00:16.752Z,83.83
2018-07-20T00:01:16.773Z,83.25
2018-07-20T00:02:16.822Z,83.15
2018-07-20T00:03:16.860Z,83.34
2018-07-20T00:04:16.913Z,83.53
2018-07-20T00:05:16.949Z,83.25
2018-07-20T00:06:16.994Z,83.63
2018-07-20T00:07:17.066Z,83.34
2018-07-20T00:08:17.092Z,83.15
2018-07-20T00:09:17.170Z,83.05
2018-07-20T00:10:17.186Z,83.25
2018-07-20T00:11:17.213Z,83.05
2018-07-20T00:12:17.291Z,83.63
2018-07-20T00:13:17.334Z,83.83
2018-07-20T00:14:17.370Z,84.21
2018-07-20T00:15:17.424Z,85.03
2018-07-20T00:16:17.443Z,84.65
2018-07-20T00:17:17.569Z,83.88
2018-07-20T00:18:17.541Z,83.01
2018-07-20T00:19:17.628Z,83.50
2018-07-20T00:20:17.675Z,83.50
2018-07-20T00:21:17.685Z,83.20
2018-07-20T00:22:17.775Z,83.98
2018-07-20T00:23:17.779Z,83.59
2018-07-20T00:24:17.860Z,84.55
2018-07-20T00:25:17.881Z,84.84
2018-07-20T00:26:17.976Z,84.46
2018-07-20T00:27:17.952Z,84.55
2018-07-20T00:28:18.085Z,84.75
2018-07-20T00:29:18.080Z,84.84
2018-07-20T00:30:18.109Z,84.84
2018-07-20T00:31:18.170Z,84.94
2018-07-20T00:32:18.208Z,84.65
2018-07-20T00:33:18.233Z,84.07
2018-07-20T00:34:18.313Z,84.46
2018-07-20T00:35:18.335Z,84.46
2018-07-20T00:36:18.440Z,84.46
2018-07-20T00:37:18.426Z,84.55
2018-07-20T00:38:18.475Z,84.75
2018-07-20T00:39:18.519Z,84.65
2018-07-20T00:40:20.080Z,84.94
2018-07-20T00:41:18.652Z,84.94
2018-07-20T00:42:18.675Z,85.03
2018-07-20T00:43:18.770Z,85.03
2018-07-20T00:44:18.755Z,85.13
2018-07-20T00:45:18.810Z,84.75
2018-07-20T00:46:18.866Z,84.75
2018-07-20T00:47:18.881Z,84.75
2018-07-20T00:48:18.961Z,84.84
2018-07-20T00:49:18.984Z,85.52
2018-07-20T00:50:19.034Z,86.25
2018-07-20T00:51:19.151Z,86.25
2018-07-20T00:52:19.108Z,86.05
2018-07-20T00:53:19.152Z,86.54
2018-07-20T00:54:19.184Z,86.25
2018-07-20T00:55:19.274Z,86.44
2018-07-20T00:56:19.311Z,86.15
2018-07-20T00:57:19.367Z,86.54
2018-07-20T00:58:19.426Z,86.15
2018-07-20T00:59:19.453Z,86.05
2018-07-20T01:00:19.497Z,86.73
2018-07-20T01:01:19.524Z,86.54
2018-07-20T01:02:19.571Z,86.35
2018-07-20T01:03:19.629Z,86.25
2018-07-20T01:04:19.690Z,86.25
2018-07-20T01:05:19.758Z,86.35
2018-07-20T01:06:19.754Z,86.25
2018-07-20T01:07:19.809Z,85.86
2018-07-20T01:08:19.847Z,86.05
2018-07-20T01:09:19.907Z,85.86
2018-07-20T01:10:19.946Z,86.35
2018-07-20T01:11:20.061Z,86.54
2018-07-20T01:12:20.050Z,86.63
2018-07-20T01:13:20.107Z,86.54
2018-07-20T01:14:20.134Z,86.63
2018-07-20T01:15:20.183Z,87.02
2018-07-20T01:16:20.245Z,87.40
2018-07-20T01:17:20.272Z,87.50
2018-07-20T01:18:20.298Z,87.70
2018-07-20T01:19:20.353Z,87.30
2018-07-20T01:20:20.408Z,88.08
2018-07-20T01:21:20.458Z,87.98
2018-07-20T01:22:20.537Z,88.17
2018-07-20T01:23:20.532Z,87.60
2018-07-20T01:24:20.595Z,88.65
2018-07-20T01:25:20.635Z,88.13
2018-07-20T01:26:20.673Z,88.08
2018-07-20T01:27:20.716Z,88.37
2018-07-20T01:28:20.774Z,88.17
2018-07-20T01:29:20.823Z,88.17
2018-07-20T01:30:20.859Z,87.70
2018-07-20T01:31:20.894Z,87.98
2018-07-20T01:32:20.947Z,88.17
2018-07-20T01:33:21.039Z,87.98
2018-07-20T01:34:21.032Z,88.37
2018-07-20T01:35:21.136Z,88.85
2018-07-20T01:36:21.155Z,88.65
2018-07-20T01:37:21.204Z,88.27
2018-07-20T01:38:21.220Z,88.56
2018-07-20T01:39:21.288Z,88.42
2018-07-20T01:40:21.347Z,88.42
2018-07-20T01:41:21.382Z,89.00
2018-07-20T01:42:21.451Z,89.09
2018-07-20T01:43:21.473Z,89.58
2018-07-20T01:44:21.557Z,89.96
2018-07-20T01:45:21.569Z,90.44
2018-07-20T01:46:21.604Z,90.25
2018-07-20T01:47:21.640Z,90.16
2018-07-20T01:48:21.705Z,90.44
2018-07-20T01:49:21.724Z,90.64
2018-07-20T01:50:21.799Z,90.44
2018-07-20T01:51:21.857Z,90.54
2018-07-20T01:52:21.877Z,90.64
2018-07-20T01:53:21.980Z,91.07
2018-07-20T01:54:22.008Z,90.78
2018-07-20T01:55:22.029Z,91.07
2018-07-20T01:56:22.080Z,90.88
2018-07-20T01:57:22.110Z,91.12
2018-07-20T01:58:22.167Z,91.07
2018-07-20T01:59:22.212Z,91.21
2018-07-20T02:00:22.286Z,91.27
2018-07-20T02:01:22.303Z,91.02
2018-07-20T02:02:22.336Z,91.02
2018-07-20T02:03:22.410Z,90.88
2018-07-20T02:04:22.480Z,91.17
2018-07-20T02:05:22.468Z,90.97
2018-07-20T02:06:22.546Z,91.41
2018-07-20T02:07:22.541Z,91.02
2018-07-20T02:08:22.638Z,91.55
2018-07-20T02:09:22.654Z,91.17
2018-07-20T02:10:22.704Z,91.55
2018-07-20T02:11:22.731Z,91.94
2018-07-20T02:12:22.792Z,92.52
2018-07-20T02:13:22.835Z,92.42
2018-07-20T02:14:22.932Z,92.32
2018-07-20T02:15:22.946Z,92.42
2018-07-20T02:16:22.974Z,92.61
2018-07-20T02:17:23.006Z,93.19
2018-07-20T02:18:23.086Z,92.80
2018-07-20T02:19:23.101Z,92.80
2018-07-20T02:20:23.190Z,92.80
2018-07-20T02:21:23.211Z,92.80
2018-07-20T02:22:23.229Z,93.29
2018-07-20T02:23:23.289Z,93.00
2018-07-20T02:24:23.323Z,93.19
2018-07-20T02:25:23.409Z,93.19
2018-07-20T02:26:23.444Z,93.29
2018-07-20T02:27:23.460Z,92.90
2018-07-20T02:28:23.556Z,93.48
2018-07-20T02:29:23.610Z,94.25
2018-07-20T02:30:23.615Z,93.57
2018-07-20T02:31:23.635Z,93.87
2018-07-20T02:32:23.703Z,94.06
2018-07-20T02:33:23.723Z,94.15
2018-07-20T02:34:23.796Z,94.25
2018-07-20T02:35:23.821Z,94.54
2018-07-20T02:36:23.874Z,94.64
2018-07-20T02:37:23.960Z,94.64
2018-07-20T02:38:23.936Z,94.54
2018-07-20T02:39:24.023Z,94.44
2018-07-20T02:40:24.076Z,93.87
2018-07-20T02:41:24.128Z,93.96
2018-07-20T02:42:24.146Z,94.92
2018-07-20T02:43:24.199Z,94.64
2018-07-20T02:44:24.243Z,94.73
2018-07-20T02:45:24.303Z,95.21
2018-07-20T02:46:24.337Z,94.68
2018-07-20T02:47:24.406Z,94.97
2018-07-20T02:48:24.417Z,95.17
2018-07-20T02:49:24.446Z,95.17
2018-07-20T02:50:24.522Z,95.26
2018-07-20T02:51:24.549Z,95.74
2018-07-20T02:52:24.607Z,95.74
2018-07-20T02:53:24.649Z,96.61
2018-07-20T02:54:24.694Z,96.12
2018-07-20T02:55:24.733Z,95.55
2018-07-20T02:56:24.786Z,95.69
2018-07-20T02:57:24.811Z,95.02
2018-07-20T02:58:24.917Z,94.97
2018-07-20T02:59:24.921Z,95.17
2018-07-20T03:00:24.952Z,95.02
2018-07-20T03:01:25.003Z,94.64
2018-07-20T03:02:25.086Z,94.97
2018-07-20T03:03:25.163Z,94.97
2018-07-20T03:04:25.143Z,94.97
2018-07-20T03:05:25.188Z,95.26
2018-07-20T03:06:25.232Z,95.55
2018-07-20T03:07:25.281Z,95.84
2018-07-20T03:08:25.312Z,96.51
2018-07-20T03:09:25.380Z,96.32
2018-07-20T03:10:25.420Z,96.61
2018-07-20T03:11:25.461Z,95.94
2018-07-20T03:12:25.507Z,96.51
2018-07-20T03:13:25.546Z,96.22
2018-07-20T03:14:25.616Z,96.51
2018-07-20T03:15:25.665Z,96.42
2018-07-20T03:16:25.661Z,96.51
2018-07-20T03:17:25.715Z,96.47
2018-07-20T03:18:25.774Z,95.84
2018-07-20T03:19:25.857Z,95.74
2018-07-20T03:20:25.859Z,95.74
2018-07-20T03:21:25.920Z,95.84
2018-07-20T03:22:25.951Z,96.37
2018-07-20T03:23:26.040Z,95.74
2018-07-20T03:24:26.049Z,96.12
2018-07-20T03:25:26.100Z,95.84
2018-07-20T03:26:26.132Z,95.74
2018-07-20T03:27:26.187Z,95.45
2018-07-20T03:28:26.210Z,95.74
2018-07-20T03:29:26.263Z,96.12
2018-07-20T03:30:26.308Z,95.84
2018-07-20T03:31:26.549Z,95.55
2018-07-20T03:32:26.375Z,95.55
2018-07-20T03:33:26.455Z,95.74
2018-07-20T03:34:26.472Z,95.55
2018-07-20T03:35:26.518Z,95.84
2018-07-20T03:36:26.616Z,95.94
2018-07-20T03:37:26.638Z,96.70
2018-07-20T03:38:26.638Z,95.55
2018-07-20T03:39:26.717Z,95.17
2018-07-20T03:40:26.754Z,95.36
2018-07-20T03:41:26.791Z,95.45
2018-07-20T03:42:27.105Z,95.74
2018-07-20T03:43:26.885Z,95.70
2018-07-20T03:44:26.949Z,95.70
2018-07-20T03:45:26.990Z,95.70
2018-07-20T03:46:27.022Z,95.89
2018-07-20T03:47:27.098Z,95.79
2018-07-20T03:48:27.132Z,95.89
2018-07-20T03:49:27.175Z,95.79
2018-07-20T03:50:27.213Z,95.50
2018-07-20T03:51:27.234Z,95.31
2018-07-20T03:52:27.308Z,95.50
2018-07-20T03:53:27.339Z,95.26
2018-07-20T03:54:27.440Z,95.02
2018-07-20T03:55:27.445Z,94.68
2018-07-20T03:56:27.521Z,95.07
2018-07-20T03:57:27.527Z,94.97
2018-07-20T03:58:27.582Z,95.26
2018-07-20T03:59:27.625Z,95.36
2018-07-20T04:00:27.630Z,95.21
2018-07-20T04:01:27.707Z,95.60
2018-07-20T04:02:27.766Z,95.70
2018-07-20T04:03:27.794Z,95.70
2018-07-20T04:04:28.036Z,95.21
2018-07-20T04:05:27.899Z,95.50
2018-07-20T04:06:27.907Z,95.60
2018-07-20T04:07:27.958Z,95.79
2018-07-20T04:08:28.007Z,95.79
2018-07-20T04:09:28.063Z,96.56
2018-07-20T04:10:28.092Z,96.66
2018-07-20T04:11:28.162Z,96.37
2018-07-20T04:12:28.213Z,96.27
2018-07-20T04:13:28.243Z,96.66
2018-07-20T04:14:28.283Z,96.75
2018-07-20T04:15:28.340Z,97.42
2018-07-20T04:16:28.579Z,96.94
2018-07-20T04:17:28.411Z,97.04
2018-07-20T04:18:28.450Z,97.33
2018-07-20T04:19:28.519Z,97.71
2018-07-20T04:20:28.549Z,98.19
2018-07-20T04:21:28.609Z,98.19
2018-07-20T04:22:28.625Z,97.91
2018-07-20T04:23:28.671Z,98.29
2018-07-20T04:24:28.732Z,98.24
2018-07-20T04:25:28.749Z,98.49
2018-07-20T04:26:28.826Z,98.14
2018-07-20T04:27:28.866Z,98.72
2018-07-20T04:28:28.877Z,98.72
2018-07-20T04:29:28.910Z,98.53
2018-07-20T04:30:28.996Z,99.11
2018-07-20T04:31:29.038Z,98.44
2018-07-20T04:32:29.068Z,98.82
2018-07-20T04:33:29.121Z,98.72
2018-07-20T04:34:29.182Z,98.24
2018-07-20T04:35:29.207Z,98.14
2018-07-20T04:36:29.420Z,98.34
2018-07-20T04:37:29.282Z,98.44
2018-07-20T04:38:29.342Z,98.44
2018-07-20T04:39:29.371Z,98.14
2018-07-20T04:40:29.432Z,98.44
2018-07-20T04:41:29.467Z,99.21
2018-07-20T04:42:29.522Z,99.01
2018-07-20T04:43:29.568Z,98.63
2018-07-20T04:44:29.617Z,99.01
2018-07-20T04:45:29.661Z,98.91
2018-07-20T04:46:29.708Z,98.91
2018-07-20T04:47:29.732Z,98.82
2018-07-20T04:48:29.793Z,98.82
2018-07-20T04:49:29.829Z,98.63
2018-07-20T04:50:29.871Z,99.11
2018-07-20T04:51:29.906Z,98.82
2018-07-20T04:52:29.988Z,99.11
2018-07-20T04:53:30.002Z,99.11
2018-07-20T04:54:30.051Z,99.21
2018-07-20T04:55:30.080Z,99.59
2018-07-20T04:56:30.131Z,98.91
2018-07-20T04:57:30.182Z,99.49
2018-07-20T04:58:30.270Z,99.30
2018-07-20T04:59:30.254Z,99.59
2018-07-20T05:00:30.310Z,99.25
2018-07-20T05:01:30.408Z,98.82
2018-07-20T05:02:30.395Z,99.11
2018-07-20T05:03:30.443Z,98.82
2018-07-20T05:04:30.461Z,99.40
2018-07-20T05:05:30.529Z,99.30
2018-07-20T05:06:30.594Z,99.92
2018-07-20T05:07:30.619Z,99.99
2018-07-20T05:08:30.669Z,99.73
2018-07-20T05:09:30.695Z,99.35
2018-07-20T05:10:30.786Z,99.59
2018-07-20T05:11:31.156Z,99.40
2018-07-20T05:12:30.834Z,99.40
2018-07-20T05:13:30.909Z,98.91
2018-07-20T05:14:30.918Z,99.59
2018-07-20T05:15:31.000Z,98.91
2018-07-20T05:16:31.030Z,99.68
2018-07-20T05:17:31.113Z,99.11
2018-07-20T05:18:31.154Z,99.01
2018-07-20T05:19:31.158Z,99.68
2018-07-20T05:20:31.219Z,99.68
2018-07-20T05:21:31.245Z,99.49
2018-07-20T05:22:31.493Z,99.49
2018-07-20T05:23:31.297Z,99.44
2018-07-20T05:24:31.385Z,99.73
2018-07-20T05:25:31.448Z,99.99
2018-07-20T05:26:31.455Z,99.99
2018-07-20T05:27:31.527Z,99.30
2018-07-20T05:28:31.555Z,99.15
2018-07-20T05:29:31.620Z,99.40
2018-07-20T05:30:31.644Z,99.88
2018-07-20T05:31:31.685Z,99.49
2018-07-20T05:32:31.755Z,99.98
2018-07-20T05:33:31.778Z,99.99
2018-07-20T05:34:31.821Z,99.99
2018-07-20T05:35:31.849Z,99.99
2018-07-20T05:36:31.888Z,99.99
2018-07-20T05:37:31.946Z,99.99
2018-07-20T05:38:32.001Z,99.99
2018-07-20T05:39:32.031Z,99.99
2018-07-20T05:40:32.121Z,99.99
2018-07-20T05:41:32.119Z,99.99
2018-07-20T05:42:32.179Z,99.99
2018-07-20T05:43:32.226Z,99.99
2018-07-20T05:44:32.271Z,99.99
2018-07-20T05:45:32.319Z,99.99
2018-07-20T05:46:32.326Z,99.99
2018-07-20T05:47:32.392Z,99.99
2018-07-20T05:48:32.426Z,99.99
2018-07-20T05:49:32.544Z,99.99
2018-07-20T05:50:32.520Z,99.99
2018-07-20T05:51:32.586Z,99.99
2018-07-20T05:52:32.640Z,99.99
2018-07-20T05:53:32.706Z,99.99
2018-07-20T05:54:32.736Z,99.99
2018-07-20T05:55:32.745Z,99.99
2018-07-20T05:56:32.766Z,99.99
2018-07-20T05:57:32.847Z,99.99
2018-07-20T05:58:32.858Z,99.99
2018-07-20T05:59:32.895Z,99.99
2018-07-20T06:00:33.032Z,99.99
2018-07-20T06:01:32.995Z,99.99
2018-07-20T06:02:33.048Z,99.99
2018-07-20T06:03:33.140Z,99.99
2018-07-20T06:04:33.339Z,99.99
2018-07-20T06:05:33.224Z,99.99
2018-07-20T06:06:33.201Z,99.99
2018-07-20T06:07:33.301Z,99.99
2018-07-20T06:08:33.310Z,99.99
2018-07-20T06:09:33.351Z,99.99
2018-07-20T06:10:33.406Z,99.99
2018-07-20T06:11:33.453Z,99.99
2018-07-20T06:12:33.483Z,99.99
2018-07-20T06:13:33.532Z,99.99
2018-07-20T06:14:33.580Z,99.99
2018-07-20T06:15:33.595Z,99.99
2018-07-20T06:16:33.652Z,99.99
2018-07-20T06:17:33.679Z,99.99
2018-07-20T06:18:33.753Z,99.99
2018-07-20T06:19:33.985Z,99.99
2018-07-20T06:20:33.844Z,99.99
2018-07-20T06:21:33.898Z,99.99
2018-07-20T06:22:33.902Z,99.99
2018-07-20T06:23:33.994Z,99.99
2018-07-20T06:24:34.036Z,99.99
2018-07-20T06:25:34.064Z,99.99
2018-07-20T06:26:34.084Z,99.99
2018-07-20T06:27:34.168Z,99.99
2018-07-20T06:28:34.183Z,99.99
2018-07-20T06:29:34.278Z,99.99
2018-07-20T06:30:34.273Z,99.99
2018-07-20T06:31:34.324Z,99.99
2018-07-20T06:32:34.374Z,99.99
2018-07-20T06:33:34.404Z,99.99
2018-07-20T06:34:34.467Z,99.99
2018-07-20T06:35:34.500Z,99.99
2018-07-20T06:36:34.518Z,99.99
2018-07-20T06:37:34.598Z,99.99
2018-07-20T06:38:34.673Z,99.99
2018-07-20T06:39:34.669Z,99.99
2018-07-20T06:40:34.825Z,99.99
2018-07-20T06:41:34.744Z,99.99
2018-07-20T06:42:34.819Z,99.99
2018-07-20T06:43:34.853Z,99.99
2018-07-20T06:44:34.905Z,99.99
2018-07-20T06:45:34.923Z,99.99
2018-07-20T06:46:34.974Z,99.99
2018-07-20T06:47:35.021Z,99.99
2018-07-20T06:48:35.086Z,99.99
2018-07-20T06:49:35.154Z,99.99
2018-07-20T06:50:35.132Z,99.99
2018-07-20T06:51:35.203Z,99.99
2018-07-20T06:52:35.261Z,99.99
2018-07-20T06:53:35.290Z,99.99
2018-07-20T06:54:35.297Z,99.99
2018-07-20T06:55:35.386Z,99.99
2018-07-20T06:56:35.406Z,99.99
2018-07-20T06:57:35.654Z,99.99
2018-07-20T06:58:35.497Z,99.99
2018-07-20T06:59:35.554Z,99.99
2018-07-20T07:00:35.599Z,99.99
2018-07-20T07:01:35.637Z,99.99
2018-07-20T07:02:35.676Z,99.99
2018-07-20T07:03:35.697Z,99.99
2018-07-20T07:04:35.766Z,99.99
2018-07-20T07:05:35.795Z,99.99
2018-07-20T07:06:35.849Z,99.99
2018-07-20T07:07:35.894Z,99.99
2018-07-20T07:08:35.933Z,99.99
2018-07-20T07:09:36.240Z,99.99
2018-07-20T07:10:36.019Z,99.99
2018-07-20T07:11:36.049Z,99.99
2018-07-20T07:12:36.095Z,99.99
2018-07-20T07:13:36.170Z,99.99
2018-07-20T07:14:36.193Z,99.99
2018-07-20T07:15:36.224Z,99.99
2018-07-20T07:16:36.286Z,99.99
2018-07-20T07:17:36.316Z,99.99
2018-07-20T07:18:36.362Z,99.99
2018-07-20T07:19:36.406Z,99.99
2018-07-20T07:20:36.491Z,99.99
2018-07-20T07:21:36.677Z,99.99
2018-07-20T07:22:36.538Z,99.99
2018-07-20T07:23:36.627Z,99.99
2018-07-20T07:24:36.620Z,99.99
2018-07-20T07:25:36.684Z,99.99
2018-07-20T07:26:36.712Z,99.99
2018-07-20T07:27:36.952Z,99.99
2018-07-20T07:28:36.782Z,99.99
2018-07-20T07:29:36.861Z,99.99
2018-07-20T07:30:36.861Z,99.99
2018-07-20T07:31:36.899Z,99.99
2018-07-20T07:32:36.968Z,99.99
2018-07-20T07:33:37.239Z,99.99
2018-07-20T07:34:37.046Z,99.99
2018-07-20T07:35:37.138Z,99.99
2018-07-20T07:36:37.127Z,99.99
2018-07-20T07:37:37.179Z,99.99
2018-07-20T07:38:37.234Z,99.99
2018-07-20T07:39:37.449Z,99.99
2018-07-20T07:40:37.331Z,99.99
2018-07-20T07:41:37.401Z,99.99
2018-07-20T07:42:37.380Z,99.99
2018-07-20T07:43:37.421Z,99.99
2018-07-20T07:44:37.479Z,99.99
2018-07-20T07:45:37.523Z,99.99
2018-07-20T07:46:37.755Z,99.99
2018-07-20T07:47:37.618Z,99.99
2018-07-20T07:48:37.657Z,99.99
2018-07-20T07:49:37.711Z,99.99
2018-07-20T07:50:37.730Z,99.99
2018-07-20T07:51:37.778Z,99.99
2018-07-20T07:52:37.802Z,99.99
2018-07-20T07:53:37.870Z,99.99
2018-07-20T07:54:37.918Z,99.99
2018-07-20T07:55:37.950Z,99.99
2018-07-20T07:56:38.228Z,99.99
2018-07-20T07:57:38.239Z,99.99
2018-07-20T07:58:38.085Z,99.99
2018-07-20T07:59:38.121Z,99.99
2018-07-20T08:00:38.164Z,99.99
2018-07-20T08:01:38.186Z,99.99
2018-07-20T08:02:38.248Z,99.99
2018-07-20T08:03:38.507Z,99.99
2018-07-20T08:04:38.345Z,99.99
2018-07-20T08:05:38.395Z,99.99
2018-07-20T08:06:38.405Z,99.99
2018-07-20T08:07:38.455Z,99.99
2018-07-20T08:08:38.533Z,99.99
2018-07-20T08:09:38.595Z,99.99
2018-07-20T08:10:38.610Z,99.99
2018-07-20T08:11:38.634Z,99.99
2018-07-20T08:12:38.718Z,99.99
2018-07-20T08:13:38.706Z,99.99
2018-07-20T08:14:38.940Z,99.99
2018-07-20T08:15:38.831Z,99.99
2018-07-20T08:16:38.857Z,99.99
2018-07-20T08:17:38.879Z,99.99
2018-07-20T08:18:38.937Z,99.99
2018-07-20T08:19:38.966Z,99.99
2018-07-20T08:20:39.059Z,99.99
2018-07-20T08:21:39.057Z,99.99
2018-07-20T08:22:39.100Z,99.99
2018-07-20T08:23:39.135Z,99.99
2018-07-20T08:24:39.163Z,99.99
2018-07-20T08:25:39.420Z,99.99
2018-07-20T08:26:39.319Z,99.99
2018-07-20T08:27:39.316Z,99.99
2018-07-20T08:28:39.353Z,99.99
2018-07-20T08:29:39.437Z,99.99
2018-07-20T08:30:39.442Z,99.99
2018-07-20T08:31:39.531Z,99.99
2018-07-20T08:32:39.539Z,99.99
2018-07-20T08:33:39.566Z,99.99
2018-07-20T08:34:39.664Z,99.99
2018-07-20T08:35:39.652Z,99.99
2018-07-20T08:36:39.759Z,99.99
2018-07-20T08:37:39.759Z,99.99
2018-07-20T08:38:39.809Z,99.99
2018-07-20T08:39:39.837Z,99.99
2018-07-20T08:40:39.889Z,99.99
2018-07-20T08:41:40.133Z,99.99
2018-07-20T08:42:39.964Z,99.99
2018-07-20T08:43:39.991Z,99.99
2018-07-20T08:44:40.080Z,99.99
2018-07-20T08:45:40.106Z,99.99
2018-07-20T08:46:40.136Z,99.99
2018-07-20T08:47:40.162Z,99.99
2018-07-20T08:48:40.226Z,99.99
2018-07-20T08:49:40.258Z,99.99
2018-07-20T08:50:40.309Z,99.99
2018-07-20T08:51:40.348Z,99.99
2018-07-20T08:52:40.396Z,99.99
2018-07-20T08:53:40.629Z,99.99
2018-07-20T08:54:40.483Z,99.99
2018-07-20T08:55:40.503Z,99.99
2018-07-20T08:56:40.532Z,99.99
2018-07-20T08:57:40.582Z,99.99
2018-07-20T08:58:40.641Z,99.99
2018-07-20T08:59:40.671Z,99.99
2018-07-20T09:00:40.914Z,99.99
2018-07-20T09:01:40.758Z,99.99
2018-07-20T09:02:40.853Z,99.99
2018-07-20T09:03:40.935Z,99.99
2018-07-20T09:04:40.902Z,99.99
2018-07-20T09:05:40.989Z,99.99
2018-07-20T09:06:40.988Z,99.99
2018-07-20T09:07:41.054Z,99.99
2018-07-20T09:08:41.081Z,99.99
2018-07-20T09:09:41.120Z,99.99
2018-07-20T09:10:41.150Z,99.99
2018-07-20T09:11:41.212Z,99.99
2018-07-20T09:12:41.232Z,99.99
2018-07-20T09:13:41.393Z,99.99
2018-07-20T09:14:41.337Z,99.99
2018-07-20T09:15:41.379Z,99.99
2018-07-20T09:16:41.394Z,99.99
2018-07-20T09:17:41.448Z,99.99
2018-07-20T09:18:41.700Z,99.99
2018-07-20T09:19:41.547Z,99.99
2018-07-20T09:20:41.622Z,99.99
2018-07-20T09:21:41.613Z,99.99
2018-07-20T09:22:41.649Z,99.99
2018-07-20T09:23:41.710Z,99.99
2018-07-20T09:24:41.749Z,99.99
2018-07-20T09:25:41.797Z,99.99
2018-07-20T09:26:41.826Z,99.99
2018-07-20T09:27:41.877Z,99.99
2018-07-20T09:28:41.919Z,99.99
2018-07-20T09:29:41.975Z,99.99
2018-07-20T09:30:42.006Z,99.99
2018-07-20T09:31:42.087Z,99.99
2018-07-20T09:32:42.086Z,99.99
2018-07-20T09:33:42.139Z,99.99
2018-07-20T09:34:42.161Z,99.99
2018-07-20T09:35:42.207Z,99.99
2018-07-20T09:36:42.456Z,99.99
2018-07-20T09:37:42.292Z,99.99
2018-07-20T09:38:42.337Z,99.99
2018-07-20T09:39:42.389Z,99.99
2018-07-20T09:40:42.433Z,99.99
2018-07-20T09:41:42.530Z,99.99
2018-07-20T09:42:42.546Z,99.99
2018-07-20T09:43:42.562Z,99.99
2018-07-20T09:44:42.607Z,99.99
2018-07-20T09:45:42.695Z,99.99
2018-07-20T09:46:42.662Z,99.99
2018-07-20T09:47:42.726Z,99.99
2018-07-20T09:48:42.765Z,99.99
2018-07-20T09:49:42.822Z,99.99
2018-07-20T09:50:42.883Z,99.99
2018-07-20T09:51:42.942Z,99.99
2018-07-20T09:52:42.950Z,99.99
2018-07-20T09:53:42.971Z,99.99
2018-07-20T09:54:42.993Z,99.99
2018-07-20T09:55:43.081Z,99.99
2018-07-20T09:56:43.091Z,99.99
2018-07-20T09:57:43.358Z,99.99
2018-07-20T09:58:43.241Z,99.99
2018-07-20T09:59:43.329Z,99.99
2018-07-20T10:00:43.287Z,99.99
2018-07-20T10:01:43.305Z,99.99
2018-07-20T10:02:43.366Z,99.99
2018-07-20T10:03:43.388Z,99.99
2018-07-20T10:04:43.422Z,99.99
2018-07-20T10:05:43.510Z,99.99
2018-07-20T10:06:43.521Z,99.99
2018-07-20T10:07:43.573Z,99.99
2018-07-20T10:08:43.622Z,99.99
2018-07-20T10:09:43.649Z,99.99
2018-07-20T10:10:43.706Z,99.99
2018-07-20T10:11:43.734Z,99.99
2018-07-20T10:12:44.125Z,99.99
2018-07-20T10:13:43.814Z,99.99
2018-07-20T10:14:43.878Z,99.99
2018-07-20T10:15:43.882Z,99.99
2018-07-20T10:16:43.951Z,99.99
2018-07-20T10:17:43.979Z,99.99
2018-07-20T10:18:44.079Z,99.99
2018-07-20T10:19:44.068Z,99.99
2018-07-20T10:20:44.133Z,99.99
2018-07-20T10:21:44.170Z,99.99
2018-07-20T10:22:44.224Z,99.99
2018-07-20T10:23:44.236Z,99.99
2018-07-20T10:24:44.330Z,99.99
2018-07-20T10:25:44.404Z,99.99
2018-07-20T10:26:44.403Z,99.99
2018-07-20T10:28:44.466Z,99.99
2018-07-20T10:29:44.562Z,99.99
2018-07-20T10:30:44.595Z,99.99
2018-07-20T10:31:44.600Z,99.99
2018-07-20T10:32:44.637Z,99.99
2018-07-20T10:33:44.666Z,99.99
2018-07-20T10:34:44.726Z,99.99
2018-07-20T10:35:44.779Z,99.99
2018-07-20T10:36:44.806Z,99.99
2018-07-20T10:37:44.852Z,99.99
2018-07-20T10:38:44.901Z,99.99
2018-07-20T10:39:44.932Z,99.99
2018-07-20T10:40:44.983Z,99.99
2018-07-20T10:41:45.005Z,99.99
2018-07-20T10:42:45.060Z,99.99
2018-07-20T10:43:45.119Z,99.99
2018-07-20T10:44:45.149Z,99.99
2018-07-20T10:45:45.416Z,99.99
2018-07-20T10:46:45.283Z,99.99
2018-07-20T10:47:45.276Z,99.99
2018-07-20T10:48:45.338Z,99.64
2018-07-20T10:49:45.365Z,99.30
2018-07-20T10:50:45.450Z,98.24
2018-07-20T10:51:45.480Z,97.47
2018-07-20T10:52:45.529Z,97.19
2018-07-20T10:53:45.575Z,96.75
2018-07-20T10:54:45.648Z,96.27
2018-07-20T10:55:45.635Z,95.06
2018-07-20T10:56:45.694Z,93.71
2018-07-20T10:57:45.745Z,93.08
2018-07-20T10:58:45.814Z,93.23
2018-07-20T10:59:45.822Z,92.84
2018-07-20T11:00:45.873Z,90.77
2018-07-20T11:01:45.983Z,90.09
2018-07-20T11:02:45.991Z,89.55
2018-07-20T11:03:46.015Z,88.78
2018-07-20T11:04:46.093Z,88.34
2018-07-20T11:05:46.155Z,87.37
2018-07-20T11:06:46.143Z,86.60
2018-07-20T11:07:46.194Z,86.31
2018-07-20T11:08:46.463Z,86.65
2018-07-20T11:09:46.319Z,84.84
2018-07-20T11:10:46.377Z,83.94
2018-07-20T11:11:46.401Z,84.22
2018-07-20T11:12:46.434Z,84.08
2018-07-20T11:13:46.581Z,83.83
2018-07-20T11:14:46.552Z,82.90
2018-07-20T11:15:46.613Z,81.45
2018-07-20T11:16:46.659Z,81.15
2018-07-20T11:17:46.676Z,80.47
2018-07-20T11:18:46.789Z,81.02
2018-07-20T11:19:46.860Z,81.40
2018-07-20T11:20:46.838Z,81.75
2018-07-20T11:21:46.901Z,81.79
2018-07-20T11:22:46.936Z,81.35
2018-07-20T11:23:47.025Z,80.67
2018-07-20T11:24:47.031Z,81.15
2018-07-20T11:25:47.108Z,79.80
2018-07-20T11:26:47.123Z,80.38
2018-07-20T11:27:47.199Z,80.19
2018-07-20T11:28:47.223Z,80.19
2018-07-20T11:29:47.319Z,79.93
2018-07-20T11:30:47.572Z,78.91
2018-07-20T11:31:47.392Z,78.61
2018-07-20T11:32:47.442Z,77.36
2018-07-20T11:33:47.505Z,77.94
2018-07-20T11:34:47.626Z,78.03
2018-07-20T11:35:47.620Z,77.45
2018-07-20T11:36:47.633Z,77.01
2018-07-20T11:37:47.723Z,77.59
2018-07-20T11:38:47.775Z,77.59
2018-07-20T11:39:47.806Z,76.14
2018-07-20T11:40:47.862Z,75.78
2018-07-20T11:41:47.948Z,76.07
2018-07-20T11:42:47.973Z,74.95
2018-07-20T11:43:48.040Z,74.46
2018-07-20T11:44:48.060Z,73.88
2018-07-20T11:45:48.131Z,74.46
2018-07-20T11:46:48.166Z,73.91
2018-07-20T11:47:48.242Z,73.56
2018-07-20T11:48:48.292Z,73.39
2018-07-20T11:49:48.335Z,74.37
2018-07-20T11:50:48.399Z,74.07
2018-07-20T11:51:48.431Z,74.01
2018-07-20T11:52:48.487Z,74.01
2018-07-20T11:53:48.556Z,72.69
2018-07-20T11:54:48.608Z,72.63
2018-07-20T11:55:48.638Z,72.43
2018-07-20T11:56:48.708Z,72.33
2018-07-20T11:57:48.759Z,71.75
2018-07-20T11:58:48.788Z,71.81
2018-07-20T11:59:48.917Z,71.81
2018-07-20T12:00:48.905Z,72.39
2018-07-20T12:01:48.974Z,72.20
2018-07-20T12:02:48.996Z,72.59
2018-07-20T12:03:49.072Z,72.65
2018-07-20T12:04:49.136Z,72.85
2018-07-20T12:05:49.169Z,72.36
2018-07-20T12:06:49.263Z,71.94
2018-07-20T12:07:49.263Z,71.26
2018-07-20T12:08:49.313Z,71.11
2018-07-20T12:09:49.391Z,69.97
2018-07-20T12:10:49.435Z,69.52
2018-07-20T12:11:49.504Z,68.71
2018-07-20T12:12:49.562Z,69.94
2018-07-20T12:13:49.581Z,70.13
2018-07-20T12:14:49.670Z,70.23
2018-07-20T12:15:49.896Z,69.97
2018-07-20T12:16:49.772Z,69.97
2018-07-20T12:17:49.810Z,68.71
2018-07-20T12:18:49.937Z,68.45
2018-07-20T12:19:49.922Z,68.06
2018-07-20T12:20:49.982Z,67.96
2018-07-20T12:21:50.024Z,68.06
2018-07-20T12:22:50.103Z,68.26
2018-07-20T12:23:50.136Z,67.80
2018-07-20T12:24:50.197Z,68.23
2018-07-20T12:25:50.246Z,66.11
2018-07-20T12:26:50.308Z,66.37
2018-07-20T12:27:50.352Z,66.73
2018-07-20T12:28:50.423Z,66.44
2018-07-20T12:29:50.468Z,67.32
2018-07-20T12:30:50.527Z,66.17
2018-07-20T12:31:50.564Z,66.76
2018-07-20T12:32:50.621Z,65.53
2018-07-20T12:33:50.673Z,64.06
2018-07-20T12:34:50.755Z,65.23
2018-07-20T12:35:50.778Z,64.81
2018-07-20T12:36:50.839Z,64.59
2018-07-20T12:37:50.891Z,65.85
2018-07-20T12:38:50.933Z,65.23
2018-07-20T12:39:51.019Z,64.81
2018-07-20T12:40:51.061Z,64.45
2018-07-20T12:41:51.137Z,65.59
2018-07-20T12:42:51.196Z,65.63
2018-07-20T12:43:51.216Z,64.65
2018-07-20T12:44:51.276Z,64.39
2018-07-20T12:45:51.323Z,63.64
2018-07-20T12:46:51.390Z,63.05
2018-07-20T12:47:51.426Z,62.95
2018-07-20T12:48:51.517Z,62.47
2018-07-20T12:49:51.558Z,62.95
2018-07-20T12:50:51.614Z,63.02
2018-07-20T12:51:51.679Z,63.60
2018-07-20T12:52:51.734Z,64.29
2018-07-20T12:53:51.794Z,62.82